الصفحة الرئيسية
METAR-TAF:

METAR-TAF

مطار :

Phetchabun, تايلاند

دائرة عرض: 16-40-33N, خط طول: 101-11-42E, ارتفاع: 137 متر

مراقبة الطقس الحالي

تاريخ ووقت الإصدار 53 دقيقة قبل الساعة 09:00UTC
ريح 8 عقدة من الجنوب/الجنوب الغربي, الاتجاه يتراوح بين الجنوب/الجنوب الشرقي و الغرب/الجنوب الغربي
درجة الحرارة 41°درجة مئوية
الرطوبة 22%
ضغط 1001 hPa
الرؤية: 8000 متر
غيوم قليلة على ارتفاع 3000 قدم

METAR: VTPB 190900Z 20008KT 150V250 8000 FEW030 41/15 Q1001 NOSIG

زمن: 16:53 (09:53 UTC)

توقعات

تاريخ ووقت الإصدار 4ساعات و 53 دقيقة قبل الساعة 05:00UTC
التوقعات صالحة من19 الساعة 06 UTC إلى 20 الساعة 06 UTC
ريح 5 عقدة من الجنوب
الرؤية: 8000 متر
غيوم قليلة على ارتفاع 3000 قدم
أصبح
من 19 الساعة 10 UTC إلى 19 الساعة 12 UTC
ريح 5 عقدة من الشمال
أصبح
من 19 الساعة 22 UTC إلى 19 الساعة 24 UTC
ريح 5 عقدة من الجنوب

TAF: VTPB 190500Z 1906/2006 18005KT 8000 FEW030 BECMG 1910/1912 36005KT BECMG 1922/1924 17005KT

أرصاد الطقس والتوقعات من أكثر من 4000 مطار (تقارير الطقس للمطار METAR والتنبؤ بالطقس بالمطارTAF).

المحطات المتاحة هي النقط الصفراء والحمراء على الخريطة.

حرك المؤشر فوق النقطة لمعرفة اسم المحطة.

ثم انقر لمعرفة أرصاد وتوقعات الطقس.

لتغيير الخارطة: اضغط على الأزرار الخضراء مع رمز الصليب الأسود للتكبير. على الزر الأخضر مع شرطة للتصغير، أو على الأسهم الخضراء للخرائط المجاورة.


METAR-TAF: